Time;durP1;ratioP1;P1;durP2;ratioP2;P2;SDS_P1;SDS_P2;PMS_P1;PMS_P2;Temp;Humidity;BMP_temperature;BMP_pressure;BME280_temperature;BME280_humidity;BME280_pressure;Samples;Min_cycle;Max_cycle;Signal;HPM_P1;HPM_P2
2022/09/04 00:00:02;;;;;;;0.00;0.00;;;15.30;99.90;;;;;;5080304;28;20458;-72
2022/09/04 00:02:46;;;;;;;0.00;0.00;;;15.30;99.90;;;;;;5079809;28;20777;-72
2022/09/04 00:05:20;;;;;;;0.00;0.00;;;15.30;99.90;;;;;;5080394;28;20533;-72
2022/09/04 00:07:56;;;;;;;0.00;0.00;;;15.30;99.90;;;;;;5080234;28;20439;-73
2022/09/04 00:10:31;;;;;;;0.00;0.00;;;15.30;99.90;;;;;;5080049;28;20493;-75
2022/09/04 00:13:06;;;;;;;0.00;0.00;;;15.30;99.90;;;;;;5080379;28;20445;-73
2022/09/04 00:15:39;;;;;;;0.00;0.00;;;15.30;99.90;;;;;;5079817;28;20533;-73
2022/09/04 00:18:12;;;;;;;0.00;0.00;;;15.30;99.90;;;;;;5079967;28;20458;-73
2022/09/04 00:20:45;;;;;;;0.00;0.00;;;15.20;99.90;;;;;;5079524;28;20593;-73
2022/09/04 00:23:18;;;;;;;0.00;0.00;;;15.20;99.90;;;;;;5079688;28;20909;-73
2022/09/04 00:25:57;;;;;;;0.00;0.00;;;15.20;99.90;;;;;;5079932;28;20603;-74
2022/09/04 00:28:34;;;;;;;0.00;0.00;;;15.20;99.90;;;;;;5079592;28;20453;-74
2022/09/04 00:31:14;;;;;;;0.00;0.00;;;15.20;99.90;;;;;;5079781;28;20592;-74
2022/09/04 00:33:51;;;;;;;0.00;0.00;;;15.20;99.90;;;;;;5079556;28;20495;-75
2022/09/04 00:36:22;;;;;;;0.00;0.00;;;15.20;99.90;;;;;;5079993;28;20451;-74
2022/09/04 00:38:55;;;;;;;0.00;0.00;;;15.20;99.90;;;;;;5079710;28;20481;-74
2022/09/04 00:41:30;;;;;;;0.00;0.00;;;15.10;99.90;;;;;;5080366;28;20522;-72
2022/09/04 00:44:20;;;;;;;0.00;0.00;;;15.10;99.90;;;;;;5080615;28;20474;-74
2022/09/04 00:47:19;;;;;;;0.00;0.00;;;15.10;99.90;;;;;;5079776;28;20434;-73
2022/09/04 00:50:10;;;;;;;0.00;0.00;;;15.10;99.90;;;;;;5079649;28;20469;-73
2022/09/04 00:52:54;;;;;;;0.00;0.00;;;15.00;99.90;;;;;;5079392;28;20636;-72
2022/09/04 00:55:40;;;;;;;0.00;0.00;;;15.00;99.90;;;;;;5079149;28;20441;-72
2022/09/04 00:58:23;;;;;;;0.00;0.00;;;14.90;99.90;;;;;;5079456;28;20520;-72
2022/09/04 01:00:56;;;;;;;0.00;0.00;;;15.00;99.90;;;;;;5079361;28;20449;-72
2022/09/04 01:03:46;;;;;;;0.00;0.00;;;14.90;99.90;;;;;;5079665;28;20559;-72
2022/09/04 01:06:35;;;;;;;0.00;0.00;;;14.90;99.90;;;;;;5079387;28;20467;-72
2022/09/04 01:09:30;;;;;;;0.00;0.00;;;14.90;99.90;;;;;;5078822;28;20533;-72
2022/09/04 01:12:08;;;;;;;0.00;0.00;;;14.90;99.90;;;;;;5079862;28;20434;-72
2022/09/04 01:14:43;;;;;;;0.00;0.00;;;14.90;99.90;;;;;;5079351;28;20422;-72
2022/09/04 01:17:24;;;;;;;0.00;0.00;;;14.90;99.90;;;;;;5078789;28;20992;-72
2022/09/04 01:19:58;;;;;;;0.00;0.00;;;14.90;99.90;;;;;;5079043;28;20825;-72
2022/09/04 01:22:45;;;;;;;0.00;0.00;;;14.90;99.90;;;;;;5079150;28;21196;-72
2022/09/04 01:25:29;;;;;;;0.00;0.00;;;14.90;99.90;;;;;;5078784;28;20470;-73
2022/09/04 01:28:03;;;;;;;0.00;0.00;;;14.90;99.90;;;;;;5079559;28;20446;-73
2022/09/04 01:30:45;;;;;;;0.00;0.00;;;14.80;99.90;;;;;;5079048;28;20454;-72
2022/09/04 01:33:22;;;;;;;0.00;0.00;;;14.80;99.90;;;;;;5079058;28;20974;-73
2022/09/04 01:35:57;;;;;;;0.00;0.00;;;14.80;99.90;;;;;;5079189;28;21161;-73
2022/09/04 01:38:33;;;;;;;0.00;0.00;;;14.80;99.90;;;;;;5078527;28;21160;-73
2022/09/04 01:41:06;;;;;;;0.00;0.00;;;14.80;99.90;;;;;;5078948;28;20448;-74
2022/09/04 01:43:35;;;;;;;0.00;0.00;;;14.80;99.90;;;;;;5079867;28;20451;-73
2022/09/04 01:46:27;;;;;;;0.00;0.00;;;14.80;99.90;;;;;;5078540;28;20436;-73
2022/09/04 01:49:03;;;;;;;0.00;0.00;;;14.80;99.90;;;;;;5078769;28;21156;-73
2022/09/04 01:51:38;;;;;;;0.00;0.00;;;14.80;99.90;;;;;;5079012;28;21174;-72
2022/09/04 01:54:16;;;;;;;0.00;0.00;;;14.80;99.90;;;;;;5078677;28;20437;-72
2022/09/04 01:56:49;;;;;;;0.00;0.00;;;14.80;99.90;;;;;;5077684;28;20985;-72
2022/09/04 01:59:26;;;;;;;0.00;0.00;;;14.80;99.90;;;;;;5078556;28;20466;-72
2022/09/04 02:02:02;;;;;;;0.00;0.00;;;14.80;99.90;;;;;;5078254;28;20450;-72
2022/09/04 02:04:39;;;;;;;0.00;0.00;;;14.80;99.90;;;;;;5078511;28;20477;-71
2022/09/04 02:07:19;;;;;;;0.00;0.00;;;14.80;99.90;;;;;;5078627;28;20434;-71
2022/09/04 02:09:55;;;;;;;0.00;0.00;;;14.80;99.90;;;;;;5078452;28;20457;-71
2022/09/04 02:12:34;;;;;;;0.00;0.00;;;14.70;99.90;;;;;;5078624;28;20432;-71
2022/09/04 02:15:12;;;;;;;0.00;0.00;;;14.70;99.90;;;;;;5078660;28;20448;-73
2022/09/04 02:20:25;;;;;;;0.00;0.00;;;14.80;99.90;;;;;;5430565;22;20478;-91
2022/09/04 02:23:04;;;;;;;0.00;0.00;;;14.80;99.90;;;;;;5107061;28;20461;-88
2022/09/04 02:25:38;;;;;;;0.00;0.00;;;14.80;99.90;;;;;;5103463;28;20470;-91
2022/09/04 02:28:29;;;;;;;0.00;0.00;;;14.80;99.90;;;;;;5102811;28;20462;-87
2022/09/04 02:31:06;;;;;;;0.00;0.00;;;14.80;99.90;;;;;;5099345;28;20512;-86
2022/09/04 02:33:41;;;;;;;0.00;0.00;;;14.70;99.90;;;;;;5102057;28;20972;-89
2022/09/04 02:36:17;;;;;;;0.00;0.00;;;14.80;99.90;;;;;;5097386;28;20441;-87
2022/09/04 02:38:55;;;;;;;0.00;0.00;;;14.80;99.90;;;;;;5099571;28;20430;-89
2022/09/04 02:41:36;;;;;;;0.00;0.00;;;14.70;99.90;;;;;;5099159;28;20508;-88
2022/09/04 02:44:17;;;;;;;0.00;0.00;;;14.70;99.90;;;;;;5097235;28;20442;-88
2022/09/04 02:47:01;;;;;;;0.00;0.00;;;14.70;99.90;;;;;;5096686;28;20616;-90
2022/09/04 02:49:39;;;;;;;0.00;0.00;;;14.70;99.90;;;;;;5096513;28;20828;-91
2022/09/04 02:52:21;;;;;;;0.00;0.00;;;14.70;99.90;;;;;;5095051;28;20500;-89
2022/09/04 02:55:08;;;;;;;0.00;0.00;;;14.70;99.90;;;;;;5092027;28;20507;-90
2022/09/04 02:57:49;;;;;;;0.00;0.00;;;14.70;99.90;;;;;;5091337;28;20446;-91
2022/09/04 03:00:19;;;;;;;0.00;0.00;;;14.70;99.90;;;;;;5097500;28;20465;-89
2022/09/04 03:02:58;;;;;;;0.00;0.00;;;14.60;99.90;;;;;;5102039;28;20466;-88
2022/09/04 03:05:32;;;;;;;0.00;0.00;;;14.60;99.90;;;;;;5101834;28;20466;-90
2022/09/04 03:08:06;;;;;;;0.00;0.00;;;14.60;99.90;;;;;;5112693;28;20441;-88
2022/09/04 03:10:41;;;;;;;0.00;0.00;;;14.60;99.90;;;;;;5100929;28;20443;-88
2022/09/04 03:13:20;;;;;;;0.00;0.00;;;14.60;99.90;;;;;;5098666;28;20418;-89
2022/09/04 03:15:54;;;;;;;0.00;0.00;;;14.50;99.90;;;;;;5098462;28;20450;-89
2022/09/04 03:18:29;;;;;;;0.00;0.00;;;14.50;99.90;;;;;;5098630;28;20939;-89
2022/09/04 03:21:00;;;;;;;0.00;0.00;;;14.50;99.90;;;;;;5098029;28;20707;-89
2022/09/04 03:23:38;;;;;;;0.00;0.00;;;14.50;99.90;;;;;;5097724;28;20447;-90
2022/09/04 03:26:18;;;;;;;0.00;0.00;;;14.50;99.90;;;;;;5097493;28;20497;-86
2022/09/04 03:28:59;;;;;;;0.00;0.00;;;14.50;99.90;;;;;;5097413;28;20502;-89
2022/09/04 03:31:32;;;;;;;0.00;0.00;;;14.50;99.90;;;;;;5098619;28;20469;-89
2022/09/04 03:34:18;;;;;;;0.00;0.00;;;14.40;99.90;;;;;;5099182;28;20470;-89
2022/09/04 03:37:01;;;;;;;0.00;0.00;;;14.40;99.90;;;;;;5099729;28;20470;-89
2022/09/04 03:39:37;;;;;;;0.00;0.00;;;14.40;99.90;;;;;;5100435;28;20968;-89
2022/09/04 03:42:15;;;;;;;0.00;0.00;;;14.30;99.90;;;;;;5099876;28;20475;-90
2022/09/04 03:44:54;;;;;;;0.00;0.00;;;14.30;99.90;;;;;;5100554;28;20474;-89
2022/09/04 03:47:33;;;;;;;0.00;0.00;;;14.30;99.90;;;;;;5100617;28;20904;-90
2022/09/04 03:50:14;;;;;;;0.00;0.00;;;14.30;99.90;;;;;;5099464;28;20835;-89
2022/09/04 03:52:52;;;;;;;0.00;0.00;;;14.20;99.90;;;;;;5099079;28;20419;-89
2022/09/04 03:55:39;;;;;;;0.00;0.00;;;14.20;99.90;;;;;;5099034;28;20836;-90
2022/09/04 03:58:17;;;;;;;0.00;0.00;;;14.20;99.90;;;;;;5099648;28;20518;-88
2022/09/04 04:00:55;;;;;;;0.00;0.00;;;14.10;99.90;;;;;;5100120;28;20466;-88
2022/09/04 04:03:42;;;;;;;0.00;0.00;;;14.10;99.90;;;;;;5100533;28;20728;-89
2022/09/04 04:06:23;;;;;;;0.00;0.00;;;14.10;99.90;;;;;;5098075;28;20558;-89
2022/09/04 04:09:10;;;;;;;0.00;0.00;;;14.10;99.90;;;;;;5105506;28;20499;-88
2022/09/04 04:11:55;;;;;;;0.00;0.00;;;14.10;99.90;;;;;;5104251;28;20466;-90
2022/09/04 04:14:44;;;;;;;0.00;0.00;;;14.00;99.90;;;;;;5097432;28;20451;-87
2022/09/04 04:17:29;;;;;;;0.00;0.00;;;14.00;99.90;;;;;;5097695;28;20468;-90
2022/09/04 04:20:11;;;;;;;0.00;0.00;;;13.90;99.90;;;;;;5100333;28;20462;-89
2022/09/04 04:22:59;;;;;;;0.00;0.00;;;14.00;99.90;;;;;;5099639;28;20461;-90
2022/09/04 04:25:49;;;;;;;0.00;0.00;;;13.90;99.90;;;;;;5099379;28;20474;-90
2022/09/04 04:28:37;;;;;;;0.00;0.00;;;13.90;99.90;;;;;;5100469;28;20427;-90
2022/09/04 04:31:15;;;;;;;0.00;0.00;;;13.90;99.90;;;;;;5099826;28;20520;-90
2022/09/04 04:33:53;;;;;;;0.00;0.00;;;13.90;99.90;;;;;;5099841;28;20435;-89
2022/09/04 04:36:35;;;;;;;0.00;0.00;;;13.90;99.90;;;;;;5099804;28;20458;-88
2022/09/04 04:39:17;;;;;;;0.00;0.00;;;13.90;99.90;;;;;;5097748;28;20929;-91
2022/09/04 04:42:08;;;;;;;0.00;0.00;;;13.90;99.90;;;;;;5099447;28;20488;-90
2022/09/04 04:48:07;;;;;;;0.00;0.00;;;13.90;99.90;;;;;;5099691;28;20578;-89
2022/09/04 04:50:41;;;;;;;0.00;0.00;;;13.90;99.90;;;;;;5098721;28;20466;-88
2022/09/04 04:53:18;;;;;;;0.00;0.00;;;13.90;99.90;;;;;;5096902;28;20461;-89
2022/09/04 04:55:55;;;;;;;0.00;0.00;;;13.90;99.90;;;;;;5095858;28;20578;-91
2022/09/04 04:58:39;;;;;;;0.00;0.00;;;13.90;99.90;;;;;;5099741;28;20480;-90
2022/09/04 05:01:15;;;;;;;0.00;0.00;;;14.00;99.90;;;;;;5098598;28;20450;-90
2022/09/04 05:03:55;;;;;;;0.00;0.00;;;14.00;99.90;;;;;;5097639;28;21019;-90
2022/09/04 05:06:32;;;;;;;0.00;0.00;;;14.00;99.90;;;;;;5096572;28;20778;-91
2022/09/04 05:09:16;;;;;;;0.00;0.00;;;14.00;99.90;;;;;;5097057;28;20438;-89
2022/09/04 05:11:53;;;;;;;0.00;0.00;;;14.10;99.90;;;;;;5102863;28;20462;-90
2022/09/04 05:14:35;;;;;;;0.00;0.00;;;14.00;99.90;;;;;;5096284;28;20438;-89
2022/09/04 05:17:14;;;;;;;0.00;0.00;;;14.10;99.90;;;;;;5089697;28;21071;-89
2022/09/04 05:19:47;;;;;;;0.00;0.00;;;14.10;99.90;;;;;;5087742;28;20422;-88
2022/09/04 05:22:25;;;;;;;0.00;0.00;;;14.10;99.90;;;;;;5095459;28;20466;-87
2022/09/04 05:25:03;;;;;;;0.00;0.00;;;14.10;99.90;;;;;;5095282;28;20449;-88
2022/09/04 05:27:43;;;;;;;0.00;0.00;;;14.20;99.90;;;;;;5097358;28;20477;-88
2022/09/04 05:30:17;;;;;;;0.00;0.00;;;14.20;99.90;;;;;;5099668;28;20494;-88
2022/09/04 05:32:55;;;;;;;0.00;0.00;;;14.20;99.90;;;;;;5096848;28;20470;-90
2022/09/04 05:35:33;;;;;;;0.00;0.00;;;14.20;99.90;;;;;;5095265;28;20506;-88
2022/09/04 05:38:08;;;;;;;0.00;0.00;;;14.20;99.90;;;;;;5093653;28;20465;-90
2022/09/04 05:40:52;;;;;;;0.00;0.00;;;14.30;99.90;;;;;;5095737;28;20509;-88
2022/09/04 05:43:34;;;;;;;0.00;0.00;;;14.40;99.90;;;;;;5097512;28;20486;-87
2022/09/04 05:46:10;;;;;;;0.00;0.00;;;14.40;99.90;;;;;;5094705;28;20504;-89
2022/09/04 05:48:45;;;;;;;0.00;0.00;;;14.50;99.90;;;;;;5096884;28;20421;-90
2022/09/04 05:51:51;;;;;;;0.00;0.00;;;14.60;99.90;;;;;;5102471;27;20466;-88
2022/09/04 05:54:42;;;;;;;0.00;0.00;;;14.70;99.90;;;;;;5103267;28;20475;-88
2022/09/04 05:57:22;;;;;;;0.00;0.00;;;14.70;99.90;;;;;;5099813;28;20443;-84
2022/09/04 06:06:39;;;;;;;0.00;0.00;;;15.00;99.90;;;;;;4995102;28;20461;-88
2022/09/04 06:09:42;;;;;;;0.00;0.00;;;15.10;99.90;;;;;;5069867;28;20581;-87
2022/09/04 06:12:27;;;;;;;0.00;0.00;;;15.20;99.90;;;;;;5074534;28;20473;-87
2022/09/04 06:15:20;;;;;;;0.00;0.00;;;15.30;99.90;;;;;;5087925;28;20439;-88
2022/09/04 06:18:24;;;;;;;0.00;0.00;;;15.40;99.90;;;;;;5065478;28;20475;-89
2022/09/04 06:25:09;;;;;;;0.00;0.00;;;15.70;99.90;;;;;;4918770;29;20441;-91
2022/09/04 06:31:27;;;;;;;0.00;0.00;;;15.90;99.90;;;;;;4936191;29;20462;-89
2022/09/04 06:38:21;;;;;;;0.00;0.00;;;16.10;99.90;;;;;;4863154;29;20449;-94
2022/09/04 06:41:02;;;;;;;0.00;0.00;;;16.10;99.90;;;;;;4950122;22;20497;-73
2022/09/04 06:43:38;;;;;;;0.00;0.00;;;16.20;99.90;;;;;;5071790;28;20455;-73
2022/09/04 06:46:21;;;;;;;0.00;0.00;;;16.20;99.90;;;;;;5062361;28;20508;-71
2022/09/04 06:49:01;;;;;;;0.00;0.00;;;16.30;99.90;;;;;;5068237;28;20507;-73
2022/09/04 06:51:43;;;;;;;0.00;0.00;;;16.40;99.90;;;;;;5064419;28;20451;-72
2022/09/04 06:54:21;;;;;;;0.00;0.00;;;16.50;99.90;;;;;;5074091;28;20991;-73
2022/09/04 06:57:04;;;;;;;0.00;0.00;;;16.60;99.90;;;;;;5063585;28;20475;-71
2022/09/04 06:59:59;;;;;;;0.00;0.00;;;16.70;99.90;;;;;;5073021;28;20807;-72
2022/09/04 07:02:53;;;;;;;0.00;0.00;;;16.70;99.90;;;;;;5069313;28;20453;-74
2022/09/04 07:05:28;;;;;;;0.00;0.00;;;16.80;99.90;;;;;;5057696;28;20467;-72
2022/09/04 07:08:07;;;;;;;0.00;0.00;;;16.80;99.90;;;;;;5069591;28;20514;-77
2022/09/04 07:10:39;;;;;;;0.00;0.00;;;16.90;99.90;;;;;;5076848;28;20478;-72
2022/09/04 07:13:26;;;;;;;0.00;0.00;;;17.00;99.90;;;;;;5076093;28;20463;-78
2022/09/04 07:16:09;;;;;;;0.00;0.00;;;17.10;99.90;;;;;;5076258;28;21011;-78
2022/09/04 07:19:02;;;;;;;0.00;0.00;;;17.10;99.90;;;;;;5087051;28;20982;-77
2022/09/04 07:21:36;;;;;;;0.00;0.00;;;17.20;99.90;;;;;;5075123;28;20595;-76
2022/09/04 07:24:09;;;;;;;0.00;0.00;;;17.40;99.90;;;;;;5059891;28;20430;-75
2022/09/04 07:26:45;;;;;;;0.00;0.00;;;17.40;99.90;;;;;;5062549;28;20516;-76
2022/09/04 07:29:33;;;;;;;0.00;0.00;;;17.50;99.90;;;;;;5069428;28;20458;-77
2022/09/04 07:32:08;;;;;;;0.00;0.00;;;17.60;99.90;;;;;;5082429;28;20522;-76
2022/09/04 07:34:46;;;;;;;0.00;0.00;;;17.70;99.90;;;;;;5068024;28;20454;-76
2022/09/04 07:37:26;;;;;;;0.00;0.00;;;17.80;99.90;;;;;;5062507;28;20436;-76
2022/09/04 07:40:08;;;;;;;0.00;0.00;;;17.90;99.90;;;;;;5063543;28;20657;-76
2022/09/04 07:42:44;;;;;;;0.00;0.00;;;18.00;99.90;;;;;;5082407;28;20996;-76
2022/09/04 07:45:28;;;;;;;0.00;0.00;;;18.00;99.90;;;;;;5066656;28;20567;-76
2022/09/04 07:48:07;;;;;;;0.00;0.00;;;18.10;99.90;;;;;;5080883;28;20478;-74
2022/09/04 07:50:45;;;;;;;0.00;0.00;;;18.20;99.90;;;;;;5078903;28;20474;-77
2022/09/04 07:53:30;;;;;;;0.00;0.00;;;18.30;99.90;;;;;;5064620;28;20773;-76
2022/09/04 07:56:02;;;;;;;0.00;0.00;;;18.30;99.90;;;;;;5082437;28;20463;-76
2022/09/04 07:58:53;;;;;;;0.00;0.00;;;18.40;99.90;;;;;;5082998;28;21010;-75
2022/09/04 08:01:42;;;;;;;0.00;0.00;;;18.50;99.90;;;;;;5068724;28;20444;-76
2022/09/04 08:04:28;;;;;;;0.00;0.00;;;18.60;99.90;;;;;;5079935;28;20445;-76
2022/09/04 08:07:00;;;;;;;0.00;0.00;;;18.70;99.90;;;;;;5083055;28;20483;-76
2022/09/04 08:09:54;;;;;;;0.00;0.00;;;18.70;99.90;;;;;;5082393;28;20479;-77
2022/09/04 08:12:55;;;;;;;0.00;0.00;;;18.80;99.90;;;;;;5074979;28;20936;-77
2022/09/04 08:15:31;;;;;;;0.00;0.00;;;18.80;99.90;;;;;;5072988;28;20480;-77
2022/09/04 08:18:35;;;;;;;0.00;0.00;;;18.90;99.90;;;;;;5063299;28;20435;-77
2022/09/04 08:21:15;;;;;;;0.00;0.00;;;19.10;99.90;;;;;;5052868;28;20483;-76
2022/09/04 08:24:17;;;;;;;0.00;0.00;;;19.10;99.90;;;;;;5074141;28;20457;-76
2022/09/04 08:27:00;;;;;;;0.00;0.00;;;19.10;99.90;;;;;;5067766;28;20461;-76
2022/09/04 08:29:50;;;;;;;0.00;0.00;;;19.20;99.90;;;;;;5069892;28;20466;-73
2022/09/04 08:32:40;;;;;;;0.00;0.00;;;19.30;99.90;;;;;;5078473;28;20465;-74
2022/09/04 08:35:22;;;;;;;0.00;0.00;;;19.40;99.90;;;;;;5072622;28;21001;-73
2022/09/04 08:38:17;;;;;;;0.00;0.00;;;19.50;99.90;;;;;;5072617;28;20430;-74
2022/09/04 08:41:18;;;;;;;0.00;0.00;;;19.60;99.90;;;;;;5061357;28;20946;-74
2022/09/04 08:44:06;;;;;;;0.00;0.00;;;19.70;99.90;;;;;;5068434;28;20542;-74
2022/09/04 08:47:00;;;;;;;0.00;0.00;;;19.70;99.90;;;;;;5071909;28;20793;-75
2022/09/04 08:49:58;;;;;;;0.00;0.00;;;19.70;99.90;;;;;;5080560;28;20446;-74
2022/09/04 08:52:49;;;;;;;0.00;0.00;;;19.70;99.90;;;;;;5079736;28;20993;-75
2022/09/04 08:55:35;;;;;;;0.00;0.00;;;19.80;99.90;;;;;;5035392;28;20478;-74
2022/09/04 08:58:37;;;;;;;0.00;0.00;;;19.90;99.90;;;;;;5059660;28;20431;-74
2022/09/04 09:01:25;;;;;;;0.00;0.00;;;20.00;99.90;;;;;;5069499;28;20438;-74
2022/09/04 09:04:25;;;;;;;0.00;0.00;;;20.00;99.90;;;;;;5068634;28;20459;-74
2022/09/04 09:07:36;;;;;;;0.00;0.00;;;20.10;99.90;;;;;;5062311;28;20431;-74
2022/09/04 09:10:37;;;;;;;0.00;0.00;;;20.20;99.90;;;;;;4983933;28;20558;-76
2022/09/04 09:13:43;;;;;;;0.00;0.00;;;20.30;99.90;;;;;;4977489;28;20444;-74
2022/09/04 09:16:23;;;;;;;0.00;0.00;;;20.40;99.90;;;;;;5059200;28;20868;-75
2022/09/04 09:19:10;;;;;;;0.00;0.00;;;20.40;99.90;;;;;;5060946;28;20450;-75
2022/09/04 09:21:48;;;;;;;0.00;0.00;;;20.50;99.90;;;;;;5067275;28;20667;-76
2022/09/04 09:24:50;;;;;;;0.00;0.00;;;20.60;99.90;;;;;;5069795;28;20451;-75
2022/09/04 09:27:47;;;;;;;0.00;0.00;;;20.60;99.90;;;;;;5079463;28;20863;-75
2022/09/04 09:30:17;;;;;;;0.00;0.00;;;20.70;99.90;;;;;;5080834;28;20542;-74
2022/09/04 09:33:29;;;;;;;0.00;0.00;;;20.70;99.90;;;;;;5082090;28;20458;-75
2022/09/04 09:36:20;;;;;;;0.00;0.00;;;20.90;99.90;;;;;;5081388;28;20900;-74
2022/09/04 09:39:33;;;;;;;0.00;0.00;;;20.90;99.90;;;;;;5079633;28;20459;-74
2022/09/04 09:42:30;;;;;;;0.00;0.00;;;21.00;99.90;;;;;;5038112;28;20520;-76
2022/09/04 09:45:15;;;;;;;0.00;0.00;;;21.00;99.90;;;;;;5072539;28;20570;-75
2022/09/04 09:48:20;;;;;;;0.00;0.00;;;21.10;99.90;;;;;;5093679;28;20470;-74
2022/09/04 09:51:27;;;;;;;0.00;0.00;;;21.10;99.90;;;;;;5065995;28;20589;-76
2022/09/04 09:54:36;;;;;;;0.00;0.00;;;21.20;99.90;;;;;;5080158;28;20659;-75
2022/09/04 09:57:34;;;;;;;0.00;0.00;;;21.30;99.90;;;;;;5058682;28;20471;-75
2022/09/04 10:00:07;;;;;;;0.00;0.00;;;21.50;99.90;;;;;;5081987;28;20727;-76
2022/09/04 10:03:23;;;;;;;0.00;0.00;;;21.50;99.90;;;;;;5060665;28;20439;-76
2022/09/04 10:06:39;;;;;;;0.00;0.00;;;21.50;99.90;;;;;;5075693;28;20485;-76
2022/09/04 10:09:48;;;;;;;0.00;0.00;;;21.60;99.90;;;;;;5081019;28;20566;-75
2022/09/04 10:12:52;;;;;;;0.00;0.00;;;21.70;99.90;;;;;;4983566;28;20489;-76
2022/09/04 10:15:44;;;;;;;0.00;0.00;;;21.70;99.90;;;;;;5075896;28;20710;-77
2022/09/04 10:19:04;;;;;;;0.00;0.00;;;21.90;99.90;;;;;;5034261;28;20446;-78
2022/09/04 10:22:12;;;;;;;0.00;0.00;;;21.90;99.90;;;;;;5083506;28;20473;-79
2022/09/04 10:25:22;;;;;;;0.00;0.00;;;22.00;99.90;;;;;;5079600;28;20958;-80
2022/09/04 10:28:24;;;;;;;0.00;0.00;;;22.00;99.90;;;;;;5078617;28;21016;-80
2022/09/04 10:31:24;;;;;;;0.00;0.00;;;22.00;99.90;;;;;;5088728;28;20704;-77
2022/09/04 10:34:12;;;;;;;0.00;0.00;;;22.10;99.90;;;;;;5047574;28;20454;-80
2022/09/04 10:36:49;;;;;;;0.00;0.00;;;22.20;99.90;;;;;;5084638;28;20504;-82
2022/09/04 10:42:26;;;;;;;0.00;0.00;;;22.40;99.90;;;;;;5069375;28;20954;-79
2022/09/04 10:45:16;;;;;;;0.00;0.00;;;22.40;99.90;;;;;;5075622;28;20447;-79
2022/09/04 10:48:39;;;;;;;0.00;0.00;;;22.40;99.90;;;;;;5082420;28;20450;-81
2022/09/04 10:52:11;;;;;;;0.00;0.00;;;22.50;99.90;;;;;;5030174;28;20667;-80
2022/09/04 10:55:13;;;;;;;0.00;0.00;;;22.60;99.90;;;;;;5074833;28;20459;-80
2022/09/04 10:57:59;;;;;;;0.00;0.00;;;22.60;99.90;;;;;;5081836;28;20438;-81
2022/09/04 11:00:35;;;;;;;0.00;0.00;;;22.60;99.90;;;;;;5093686;28;20521;-81
2022/09/04 11:03:27;;;;;;;0.00;0.00;;;22.80;99.90;;;;;;5094243;28;21061;-81
2022/09/04 11:06:10;;;;;;;0.00;0.00;;;22.80;99.90;;;;;;5084288;28;20443;-81
2022/09/04 11:09:03;;;;;;;0.00;0.00;;;22.90;99.90;;;;;;5089569;28;20490;-76
2022/09/04 11:12:11;;;;;;;0.00;0.00;;;23.00;99.90;;;;;;5083191;28;20477;-85
2022/09/04 11:15:06;;;;;;;0.00;0.00;;;23.00;99.90;;;;;;5079931;28;20509;-83
2022/09/04 11:17:53;;;;;;;0.00;0.00;;;23.10;99.90;;;;;;5079737;28;20437;-77
2022/09/04 11:20:56;;;;;;;0.00;0.00;;;23.10;99.90;;;;;;5077901;28;20804;-77
2022/09/04 11:24:06;;;;;;;0.00;0.00;;;23.10;99.90;;;;;;5076382;28;20453;-77
2022/09/04 11:27:11;;;;;;;0.00;0.00;;;23.10;99.90;;;;;;5064539;28;20534;-77
2022/09/04 11:29:54;;;;;;;0.00;0.00;;;23.10;99.90;;;;;;5083421;28;20481;-78
2022/09/04 11:33:14;;;;;;;0.00;0.00;;;23.20;99.90;;;;;;5079509;28;20524;-77
2022/09/04 11:36:08;;;;;;;0.00;0.00;;;23.30;99.90;;;;;;5024898;28;20594;-77
2022/09/04 11:39:02;;;;;;;0.00;0.00;;;23.40;99.90;;;;;;5081591;28;20466;-78
2022/09/04 11:42:02;;;;;;;0.00;0.00;;;23.40;99.90;;;;;;5069684;28;20505;-75
2022/09/04 11:45:16;;;;;;;0.00;0.00;;;23.50;99.90;;;;;;5074868;28;21004;-76
2022/09/04 11:48:03;;;;;;;0.00;0.00;;;23.50;99.80;;;;;;5056627;28;20481;-76
2022/09/04 11:51:04;;;;;;;0.00;0.00;;;23.50;99.90;;;;;;5071664;28;20571;-77
2022/09/04 11:53:59;;;;;;;0.00;0.00;;;23.50;99.90;;;;;;5057400;28;20514;-77
2022/09/04 11:57:04;;;;;;;0.00;0.00;;;23.40;99.90;;;;;;5070647;28;20511;-77
2022/09/04 11:59:52;;;;;;;0.00;0.00;;;23.40;99.90;;;;;;5031996;28;20570;-77
2022/09/04 12:02:42;;;;;;;0.00;0.00;;;23.50;99.90;;;;;;5066414;28;20457;-75
2022/09/04 12:05:23;;;;;;;0.00;0.00;;;23.50;99.90;;;;;;5071082;28;20526;-78
2022/09/04 12:08:15;;;;;;;0.00;0.00;;;23.50;99.90;;;;;;5078319;28;20469;-77
2022/09/04 12:11:00;;;;;;;0.00;0.00;;;23.60;99.90;;;;;;5074244;28;20493;-77
2022/09/04 12:13:52;;;;;;;0.00;0.00;;;23.60;99.90;;;;;;5075889;28;20505;-77
2022/09/04 12:16:51;;;;;;;0.00;0.00;;;23.70;99.90;;;;;;5071567;28;20462;-76
2022/09/04 12:19:33;;;;;;;0.00;0.00;;;23.80;99.90;;;;;;5078428;28;21037;-76
2022/09/04 12:22:33;;;;;;;0.00;0.00;;;23.80;99.90;;;;;;5066680;28;20643;-77
2022/09/04 12:25:29;;;;;;;0.00;0.00;;;23.90;99.80;;;;;;5072971;28;20486;-76
2022/09/04 12:28:42;;;;;;;0.00;0.00;;;23.90;99.90;;;;;;5067884;28;20743;-77
2022/09/04 12:31:34;;;;;;;0.00;0.00;;;23.90;99.80;;;;;;5071658;28;20850;-76
2022/09/04 12:34:24;;;;;;;0.00;0.00;;;24.00;99.60;;;;;;5066316;28;20710;-77
2022/09/04 12:37:10;;;;;;;0.00;0.00;;;24.00;99.50;;;;;;5067078;28;20904;-76
2022/09/04 12:40:20;;;;;;;0.00;0.00;;;24.00;99.20;;;;;;5076572;28;20478;-77
2022/09/04 12:42:58;;;;;;;0.00;0.00;;;24.00;99.30;;;;;;5070105;28;20919;-77
2022/09/04 12:45:39;;;;;;;0.00;0.00;;;24.00;99.10;;;;;;5075582;28;21018;-77
2022/09/04 12:48:16;;;;;;;0.00;0.00;;;24.10;99.20;;;;;;5072918;28;20558;-75
2022/09/04 12:50:51;;;;;;;0.00;0.00;;;24.10;99.40;;;;;;5069200;28;20537;-75
2022/09/04 12:53:44;;;;;;;0.00;0.00;;;24.10;99.90;;;;;;5076861;28;20555;-79
2022/09/04 12:56:25;;;;;;;0.00;0.00;;;24.20;99.60;;;;;;5076018;28;20637;-78
2022/09/04 12:59:13;;;;;;;0.00;0.00;;;24.30;99.20;;;;;;5069638;28;20474;-80
2022/09/04 13:01:55;;;;;;;0.00;0.00;;;24.40;99.30;;;;;;5064695;28;20439;-78
2022/09/04 13:04:30;;;;;;;0.00;0.00;;;24.40;99.10;;;;;;5068281;28;20448;-78
2022/09/04 13:07:13;;;;;;;0.00;0.00;;;24.40;99.20;;;;;;5065911;28;20875;-77
2022/09/04 13:09:54;;;;;;;0.00;0.00;;;24.40;99.10;;;;;;5080303;28;20580;-78
2022/09/04 13:12:35;;;;;;;0.00;0.00;;;24.50;99.30;;;;;;5078417;28;20916;-78
2022/09/04 13:15:25;;;;;;;0.00;0.00;;;24.50;99.10;;;;;;5076962;28;20536;-79
2022/09/04 13:18:07;;;;;;;0.00;0.00;;;24.60;98.60;;;;;;5065425;28;20437;-78
2022/09/04 13:20:47;;;;;;;0.00;0.00;;;24.60;98.30;;;;;;5082124;28;20698;-78
2022/09/04 13:23:34;;;;;;;0.00;0.00;;;24.50;98.50;;;;;;5081055;28;20457;-78
2022/09/04 13:26:28;;;;;;;0.00;0.00;;;24.50;98.60;;;;;;5087477;28;20452;-77
2022/09/04 13:29:11;;;;;;;0.00;0.00;;;24.50;98.70;;;;;;5084473;28;20770;-78
2022/09/04 13:32:23;;;;;;;0.00;0.00;;;24.50;98.70;;;;;;5084207;28;20957;-78
2022/09/04 13:35:10;;;;;;;0.00;0.00;;;24.50;98.60;;;;;;5086283;28;20441;-78
2022/09/04 13:38:09;;;;;;;0.00;0.00;;;24.50;98.40;;;;;;5087179;28;20464;-78
2022/09/04 13:41:12;;;;;;;0.00;0.00;;;24.60;98.30;;;;;;5068046;28;20468;-76
2022/09/04 13:44:06;;;;;;;0.00;0.00;;;24.60;98.40;;;;;;5071373;28;20436;-78
2022/09/04 13:46:37;;;;;;;0.00;0.00;;;24.60;98.30;;;;;;5072706;28;20462;-78
2022/09/04 13:49:10;;;;;;;0.00;0.00;;;24.60;98.30;;;;;;5059934;28;20491;-77
2022/09/04 13:51:45;;;;;;;0.00;0.00;;;24.70;98.20;;;;;;5059594;28;20496;-78
2022/09/04 13:54:19;;;;;;;0.00;0.00;;;24.80;98.20;;;;;;5061042;28;20532;-78
2022/09/04 13:56:58;;;;;;;0.00;0.00;;;24.80;98.10;;;;;;5063682;28;20495;-78
2022/09/04 13:59:27;;;;;;;0.00;0.00;;;24.70;98.00;;;;;;5059838;28;20470;-78
2022/09/04 14:02:01;;;;;;;0.00;0.00;;;24.70;97.80;;;;;;5059788;28;20434;-77
2022/09/04 14:04:33;;;;;;;0.00;0.00;;;24.70;97.90;;;;;;5059342;28;20724;-78
2022/09/04 14:07:10;;;;;;;0.00;0.00;;;24.60;97.80;;;;;;5061178;28;20953;-79
2022/09/04 14:09:43;;;;;;;0.00;0.00;;;24.70;98.00;;;;;;5060775;28;21088;-77
2022/09/04 14:12:37;;;;;;;0.00;0.00;;;24.70;97.80;;;;;;5074781;28;20448;-79
2022/09/04 14:15:27;;;;;;;0.00;0.00;;;24.80;97.70;;;;;;5079498;28;20458;-78
2022/09/04 14:18:12;;;;;;;0.00;0.00;;;24.80;97.50;;;;;;5058881;28;20480;-78
2022/09/04 14:20:50;;;;;;;0.00;0.00;;;24.80;97.70;;;;;;5071581;28;20447;-78
2022/09/04 14:23:25;;;;;;;0.00;0.00;;;24.80;97.40;;;;;;5069106;28;20789;-78
2022/09/04 14:25:58;;;;;;;0.00;0.00;;;24.80;97.80;;;;;;5072258;28;20474;-78
2022/09/04 14:28:33;;;;;;;0.00;0.00;;;24.80;97.90;;;;;;5063089;28;20838;-78
2022/09/04 14:31:12;;;;;;;0.00;0.00;;;24.90;97.80;;;;;;5060321;28;20835;-77
2022/09/04 14:33:52;;;;;;;0.00;0.00;;;25.00;97.50;;;;;;5064454;28;20982;-77
2022/09/04 14:36:28;;;;;;;0.00;0.00;;;25.00;97.50;;;;;;5075533;28;20740;-78
2022/09/04 14:39:12;;;;;;;0.00;0.00;;;25.10;97.00;;;;;;5059382;28;20454;-77
2022/09/04 14:41:53;;;;;;;0.00;0.00;;;25.30;96.90;;;;;;5070375;28;20477;-77
2022/09/04 14:44:38;;;;;;;0.00;0.00;;;25.40;96.60;;;;;;5076922;28;20994;-77
2022/09/04 14:47:15;;;;;;;0.00;0.00;;;25.40;96.60;;;;;;5071470;28;20536;-74